createdAt,value
2018-12-21T00:00:52.846Z,8.36
2018-12-21T00:01:52.942Z,8.34
2018-12-21T00:02:52.836Z,8.31
2018-12-21T00:03:52.827Z,8.34
2018-12-21T00:04:52.847Z,8.31
2018-12-21T00:05:52.818Z,8.33
2018-12-21T00:06:52.813Z,8.34
2018-12-21T00:07:52.805Z,8.28
2018-12-21T00:08:52.799Z,8.31
2018-12-21T00:09:52.794Z,8.36
2018-12-21T00:10:52.786Z,8.33
2018-12-21T00:11:52.778Z,8.36
2018-12-21T00:12:52.776Z,8.33
2018-12-21T00:13:52.772Z,8.33
2018-12-21T00:14:52.761Z,8.31
2018-12-21T00:15:52.755Z,8.31
2018-12-21T00:16:52.749Z,8.33
2018-12-21T00:17:52.743Z,8.33
2018-12-21T00:18:52.736Z,8.41
2018-12-21T00:19:52.739Z,8.30
2018-12-21T00:20:52.726Z,8.34
2018-12-21T00:21:52.717Z,8.30
2018-12-21T00:22:52.712Z,8.31
2018-12-21T00:23:52.705Z,8.31
2018-12-21T00:24:52.700Z,8.24
2018-12-21T00:25:52.693Z,8.31
2018-12-21T00:26:52.688Z,8.34
2018-12-21T00:27:52.681Z,8.33
2018-12-21T00:28:52.675Z,8.33
2018-12-21T00:29:52.672Z,8.28
2018-12-21T00:30:52.663Z,8.28
2018-12-21T00:31:52.656Z,8.41
2018-12-21T00:32:52.651Z,8.31
2018-12-21T00:33:52.644Z,8.33
2018-12-21T00:34:52.640Z,8.33
2018-12-21T00:35:52.631Z,8.36
2018-12-21T00:36:52.627Z,8.28
2018-12-21T00:37:52.620Z,8.34
2018-12-21T00:38:52.614Z,8.36
2018-12-21T00:39:52.608Z,8.30
2018-12-21T00:40:52.602Z,8.28
2018-12-21T00:41:52.595Z,8.30
2018-12-21T00:42:52.590Z,8.36
2018-12-21T00:43:52.583Z,8.27
2018-12-21T00:44:52.576Z,8.37
2018-12-21T00:45:52.571Z,8.33
2018-12-21T00:46:52.565Z,8.33
2018-12-21T00:47:52.557Z,8.31
2018-12-21T00:48:52.553Z,8.31
2018-12-21T00:49:52.546Z,8.30
2018-12-21T00:50:52.540Z,8.27
2018-12-21T00:51:52.533Z,8.27
2018-12-21T00:52:52.529Z,8.30
2018-12-21T00:53:52.521Z,8.33
2018-12-21T00:54:52.516Z,8.24
2018-12-21T00:55:52.510Z,8.34
2018-12-21T00:56:52.503Z,8.26
2018-12-21T00:57:52.497Z,8.34
2018-12-21T00:58:52.492Z,8.37
2018-12-21T00:59:52.487Z,8.42
2018-12-21T01:00:52.481Z,8.38
2018-12-21T01:01:52.475Z,8.42
2018-12-21T01:02:52.469Z,8.37
2018-12-21T01:03:52.461Z,8.42
2018-12-21T01:04:52.460Z,8.41
2018-12-21T01:05:52.452Z,8.38
2018-12-21T01:06:52.445Z,8.37
2018-12-21T01:07:52.436Z,8.36
2018-12-21T01:08:52.431Z,8.36
2018-12-21T01:09:52.427Z,8.41
2018-12-21T01:10:52.419Z,8.48
2018-12-21T01:11:52.412Z,8.38
2018-12-21T01:12:52.407Z,8.46
2018-12-21T01:13:52.501Z,8.41
2018-12-21T01:14:52.396Z,8.51
2018-12-21T01:15:52.389Z,8.45
2018-12-21T01:16:52.382Z,8.46
2018-12-21T01:17:52.380Z,8.46
2018-12-21T01:18:52.371Z,8.45
2018-12-21T01:19:52.364Z,8.51
2018-12-21T01:20:52.360Z,8.48
2018-12-21T01:21:52.354Z,8.48
2018-12-21T01:22:52.348Z,8.56
2018-12-21T01:23:52.339Z,8.56
2018-12-21T01:24:52.334Z,8.56
2018-12-21T01:25:52.330Z,8.51
2018-12-21T01:26:52.321Z,8.49
2018-12-21T01:27:52.316Z,8.53
2018-12-21T01:28:52.311Z,8.46
2018-12-21T01:29:52.303Z,8.49
2018-12-21T01:30:52.298Z,8.44
2018-12-21T01:31:52.291Z,8.45
2018-12-21T01:32:52.285Z,8.41
2018-12-21T01:33:52.281Z,8.51
2018-12-21T01:34:52.273Z,8.44
2018-12-21T01:35:52.267Z,8.45
2018-12-21T01:36:52.260Z,8.60
2018-12-21T01:37:52.254Z,8.60
2018-12-21T01:38:52.249Z,8.46
2018-12-21T01:39:52.242Z,8.61
2018-12-21T01:40:52.236Z,8.49
2018-12-21T01:41:52.231Z,8.48
2018-12-21T01:42:52.326Z,8.48
2018-12-21T01:43:52.218Z,8.46
2018-12-21T01:44:52.211Z,8.60
2018-12-21T01:45:52.206Z,8.49
2018-12-21T01:46:52.200Z,8.46
2018-12-21T01:47:52.194Z,8.52
2018-12-21T01:48:52.189Z,8.52
2018-12-21T01:49:52.190Z,8.52
2018-12-21T01:50:52.178Z,8.49
2018-12-21T01:51:52.172Z,8.44
2018-12-21T01:52:52.168Z,8.52
2018-12-21T01:53:52.160Z,8.53
2018-12-21T01:54:52.153Z,8.52
2018-12-21T01:55:52.148Z,8.45
2018-12-21T01:56:52.141Z,8.52
2018-12-21T01:57:52.135Z,8.52
2018-12-21T01:58:52.129Z,8.38
2018-12-21T01:59:52.121Z,8.46
2018-12-21T02:00:52.116Z,8.44
2018-12-21T02:01:52.111Z,8.51
2018-12-21T02:02:52.105Z,8.46
2018-12-21T02:03:52.097Z,8.46
2018-12-21T02:04:52.091Z,8.46
2018-12-21T02:05:52.085Z,8.48
2018-12-21T02:06:52.079Z,8.52
2018-12-21T02:07:52.072Z,8.51
2018-12-21T02:08:52.067Z,8.63
2018-12-21T02:09:52.062Z,8.60
2018-12-21T02:10:52.056Z,8.55
2018-12-21T02:11:52.050Z,8.58
2018-12-21T02:12:52.044Z,8.64
2018-12-21T02:13:52.039Z,8.61
2018-12-21T02:14:52.033Z,8.66
2018-12-21T02:15:52.025Z,8.67
2018-12-21T02:16:52.018Z,8.67
2018-12-21T02:17:52.014Z,8.67
2018-12-21T02:18:52.008Z,8.70
2018-12-21T02:19:52.004Z,8.69
2018-12-21T02:20:51.998Z,8.73
2018-12-21T02:21:55.825Z,8.69
2018-12-21T02:22:51.984Z,8.76
2018-12-21T02:23:51.977Z,8.64
2018-12-21T02:24:52.071Z,8.66
2018-12-21T02:25:51.965Z,8.74
2018-12-21T02:26:51.963Z,8.81
2018-12-21T02:27:51.951Z,8.79
2018-12-21T02:28:51.947Z,8.85
2018-12-21T02:29:51.940Z,8.82
2018-12-21T02:30:51.938Z,8.78
2018-12-21T02:31:51.929Z,8.82
2018-12-21T02:32:51.921Z,8.88
2018-12-21T02:33:51.917Z,8.85
2018-12-21T02:34:51.911Z,8.87
2018-12-21T02:35:51.905Z,8.88
2018-12-21T02:36:51.898Z,8.92
2018-12-21T02:37:51.892Z,8.88
2018-12-21T02:38:51.889Z,8.95
2018-12-21T02:39:51.880Z,9.00
2018-12-21T02:40:51.877Z,8.95
2018-12-21T02:41:51.868Z,8.95
2018-12-21T02:42:51.863Z,8.97
2018-12-21T02:43:51.857Z,8.99
2018-12-21T02:44:51.850Z,8.97
2018-12-21T02:45:51.853Z,8.95
2018-12-21T02:46:51.838Z,9.02
2018-12-21T02:47:51.833Z,8.92
2018-12-21T02:48:51.824Z,9.02
2018-12-21T02:49:51.820Z,8.97
2018-12-21T02:50:51.813Z,8.91
2018-12-21T02:51:51.807Z,9.06
2018-12-21T02:52:51.800Z,8.95
2018-12-21T02:53:51.795Z,8.94
2018-12-21T02:54:51.788Z,8.99
2018-12-21T02:55:51.782Z,8.99
2018-12-21T02:56:51.777Z,9.06
2018-12-21T02:57:51.771Z,9.06
2018-12-21T02:58:51.763Z,9.03
2018-12-21T02:59:51.759Z,8.95
2018-12-21T03:00:51.751Z,8.92
2018-12-21T03:01:51.747Z,8.99
2018-12-21T03:02:51.741Z,8.95
2018-12-21T03:03:51.734Z,8.95
2018-12-21T03:04:51.730Z,8.92
2018-12-21T03:05:51.724Z,8.97
2018-12-21T03:06:51.719Z,8.92
2018-12-21T03:07:51.709Z,8.94
2018-12-21T03:08:51.705Z,8.88
2018-12-21T03:09:51.703Z,8.95
2018-12-21T03:10:51.693Z,8.94
2018-12-21T03:11:51.686Z,8.92
2018-12-21T03:12:51.679Z,9.03
2018-12-21T03:13:51.676Z,8.97
2018-12-21T03:14:51.670Z,9.06
2018-12-21T03:15:51.661Z,9.03
2018-12-21T03:16:51.655Z,8.92
2018-12-21T03:17:51.649Z,8.91
2018-12-21T03:18:51.646Z,8.99
2018-12-21T03:19:51.640Z,9.00
2018-12-21T03:20:51.631Z,8.85
2018-12-21T03:21:51.628Z,8.81
2018-12-21T03:22:51.621Z,8.97
2018-12-21T03:23:51.614Z,8.99
2018-12-21T03:24:51.608Z,8.95
2018-12-21T03:25:51.604Z,8.81
2018-12-21T03:26:51.598Z,8.81
2018-12-21T03:27:51.592Z,8.95
2018-12-21T03:28:51.584Z,8.87
2018-12-21T03:29:51.580Z,8.91
2018-12-21T03:30:51.576Z,8.92
2018-12-21T03:31:51.569Z,8.87
2018-12-21T03:32:51.563Z,8.88
2018-12-21T03:33:51.562Z,8.87
2018-12-21T03:34:51.551Z,8.79
2018-12-21T03:35:51.545Z,8.67
2018-12-21T03:36:51.536Z,8.67
2018-12-21T03:37:51.535Z,8.71
2018-12-21T03:38:51.528Z,8.73
2018-12-21T03:39:51.522Z,8.73
2018-12-21T03:40:51.513Z,8.71
2018-12-21T03:41:51.509Z,8.69
2018-12-21T03:42:51.502Z,8.70
2018-12-21T03:43:51.494Z,8.69
2018-12-21T03:44:51.491Z,8.69
2018-12-21T03:45:51.483Z,8.69
2018-12-21T03:46:51.481Z,8.66
2018-12-21T03:47:51.472Z,8.69
2018-12-21T03:48:51.466Z,8.69
2018-12-21T03:49:51.460Z,8.67
2018-12-21T03:50:51.455Z,8.67
2018-12-21T03:51:51.449Z,8.71
2018-12-21T03:52:51.442Z,8.69
2018-12-21T03:53:51.436Z,8.67
2018-12-21T03:54:51.433Z,8.60
2018-12-21T03:55:51.423Z,8.70
2018-12-21T03:56:51.416Z,8.63
2018-12-21T03:57:51.412Z,8.64
2018-12-21T03:58:51.408Z,8.69
2018-12-21T03:59:51.454Z,8.63
2018-12-21T04:00:51.393Z,8.66
2018-12-21T04:01:51.387Z,8.84
2018-12-21T04:02:51.382Z,8.70
2018-12-21T04:03:51.376Z,8.69
2018-12-21T04:04:51.370Z,8.81
2018-12-21T04:05:51.364Z,8.81
2018-12-21T04:06:51.359Z,8.79
2018-12-21T04:07:51.354Z,8.82
2018-12-21T04:08:51.348Z,8.85
2018-12-21T04:09:51.340Z,8.87
2018-12-21T04:10:51.335Z,8.89
2018-12-21T04:11:51.330Z,8.82
2018-12-21T04:12:51.325Z,8.81
2018-12-21T04:13:51.317Z,8.84
2018-12-21T04:14:51.311Z,8.79
2018-12-21T04:15:51.302Z,8.74
2018-12-21T04:16:51.299Z,8.82
2018-12-21T04:17:51.292Z,8.84
2018-12-21T04:18:51.291Z,8.76
2018-12-21T04:19:51.280Z,8.88
2018-12-21T04:20:51.281Z,8.82
2018-12-21T04:21:51.267Z,8.84
2018-12-21T04:22:51.261Z,8.81
2018-12-21T04:23:51.255Z,8.74
2018-12-21T04:24:51.249Z,8.66
2018-12-21T04:25:51.243Z,8.66
2018-12-21T04:26:51.238Z,8.73
2018-12-21T04:27:51.230Z,8.84
2018-12-21T04:28:51.225Z,8.87
2018-12-21T04:29:51.220Z,8.81
2018-12-21T04:30:51.213Z,8.66
2018-12-21T04:31:51.207Z,8.74
2018-12-21T04:32:51.201Z,8.85
2018-12-21T04:33:51.194Z,8.84
2018-12-21T04:34:51.189Z,8.91
2018-12-21T04:35:51.182Z,8.89
2018-12-21T04:36:51.184Z,8.88
2018-12-21T04:37:51.170Z,8.85
2018-12-21T04:38:51.165Z,8.76
2018-12-21T04:39:51.159Z,8.85
2018-12-21T04:40:51.154Z,8.79
2018-12-21T04:41:51.147Z,8.82
2018-12-21T04:42:51.142Z,8.84
2018-12-21T04:43:51.136Z,8.89
2018-12-21T04:44:51.128Z,8.82
2018-12-21T04:45:51.127Z,8.87
2018-12-21T04:46:51.117Z,8.82
2018-12-21T04:47:51.109Z,8.99
2018-12-21T04:48:51.104Z,8.87
2018-12-21T04:49:51.102Z,8.85
2018-12-21T04:50:51.093Z,8.97
2018-12-21T04:51:51.086Z,8.97
2018-12-21T04:52:51.080Z,8.91
2018-12-21T04:53:51.076Z,8.84
2018-12-21T04:54:51.068Z,8.91
2018-12-21T04:55:51.065Z,8.88
2018-12-21T04:56:51.202Z,8.87
2018-12-21T04:57:51.050Z,8.82
2018-12-21T04:58:51.046Z,8.81
2018-12-21T04:59:51.040Z,8.87
2018-12-21T05:00:51.057Z,8.88
2018-12-21T05:01:51.029Z,8.79
2018-12-21T05:02:51.022Z,8.87
2018-12-21T05:03:51.014Z,8.81
2018-12-21T05:04:51.008Z,8.85
2018-12-21T05:05:51.003Z,8.84
2018-12-21T05:06:50.997Z,8.85
2018-12-21T05:07:50.991Z,8.79
2018-12-21T05:08:50.984Z,8.81
2018-12-21T05:09:50.979Z,8.85
2018-12-21T05:10:50.974Z,8.85
2018-12-21T05:11:50.965Z,8.88
2018-12-21T05:12:50.960Z,8.88
2018-12-21T05:13:50.954Z,8.81
2018-12-21T05:14:50.949Z,8.84
2018-12-21T05:15:50.943Z,8.81
2018-12-21T05:16:50.939Z,8.84
2018-12-21T05:17:50.931Z,8.79
2018-12-21T05:18:50.927Z,8.79
2018-12-21T05:19:50.921Z,8.84
2018-12-21T05:20:50.913Z,8.88
2018-12-21T05:21:50.908Z,9.00
2018-12-21T05:22:52.354Z,8.89
2018-12-21T05:23:50.896Z,8.95
2018-12-21T05:24:50.890Z,8.81
2018-12-21T05:25:50.886Z,8.87
2018-12-21T05:26:50.879Z,8.89
2018-12-21T05:27:50.871Z,8.81
2018-12-21T05:28:50.867Z,8.81
2018-12-21T05:29:50.864Z,8.81
2018-12-21T05:30:50.854Z,8.84
2018-12-21T05:31:50.848Z,8.81
2018-12-21T05:32:50.843Z,8.67
2018-12-21T05:33:50.836Z,8.67
2018-12-21T05:34:50.831Z,8.66
2018-12-21T05:35:50.824Z,8.66
2018-12-21T05:36:50.822Z,8.63
2018-12-21T05:37:50.812Z,8.60
2018-12-21T05:38:50.806Z,8.55
2018-12-21T05:39:50.799Z,8.51
2018-12-21T05:40:50.795Z,8.53
2018-12-21T05:41:50.789Z,8.53
2018-12-21T05:42:50.785Z,8.52
2018-12-21T05:43:50.779Z,8.44
2018-12-21T05:44:50.770Z,8.48
2018-12-21T05:45:50.765Z,8.45
2018-12-21T05:46:50.760Z,8.52
2018-12-21T05:47:50.754Z,8.46
2018-12-21T05:48:50.746Z,8.53
2018-12-21T05:49:50.741Z,8.46
2018-12-21T05:50:50.737Z,8.48
2018-12-21T05:51:50.728Z,8.42
2018-12-21T05:52:50.723Z,8.44
2018-12-21T05:53:50.716Z,8.46
2018-12-21T05:54:50.711Z,8.49
2018-12-21T05:55:50.704Z,8.48
2018-12-21T05:56:50.697Z,8.48
2018-12-21T05:57:50.692Z,8.45
2018-12-21T05:58:50.686Z,8.48
2018-12-21T05:59:50.681Z,8.48
2018-12-21T06:00:50.674Z,8.53
2018-12-21T06:01:50.668Z,8.56
2018-12-21T06:02:50.663Z,8.53
2018-12-21T06:03:50.655Z,8.58
2018-12-21T06:04:50.653Z,8.60
2018-12-21T06:05:50.650Z,8.61
2018-12-21T06:06:50.641Z,8.70
2018-12-21T06:07:50.631Z,8.63
2018-12-21T06:08:50.627Z,8.67
2018-12-21T06:09:50.619Z,8.67
2018-12-21T06:10:50.616Z,8.56
2018-12-21T06:11:50.609Z,8.69
2018-12-21T06:12:50.601Z,8.67
2018-12-21T06:13:50.595Z,8.66
2018-12-21T06:14:50.590Z,8.73
2018-12-21T06:15:50.582Z,8.73
2018-12-21T06:16:50.578Z,8.71
2018-12-21T06:17:50.571Z,8.67
2018-12-21T06:18:50.566Z,8.67
2018-12-21T06:19:50.558Z,8.78
2018-12-21T06:20:50.552Z,8.84
2018-12-21T06:21:50.546Z,8.84
2018-12-21T06:22:50.541Z,8.81
2018-12-21T06:23:50.533Z,8.82
2018-12-21T06:24:50.529Z,8.78
2018-12-21T06:25:50.523Z,8.79
2018-12-21T06:26:50.520Z,8.79
2018-12-21T06:27:50.513Z,8.85
2018-12-21T06:28:50.505Z,8.84
2018-12-21T06:29:50.498Z,8.91
2018-12-21T06:30:50.494Z,8.87
2018-12-21T06:31:50.485Z,8.97
2018-12-21T06:32:50.480Z,8.99
2018-12-21T06:33:50.475Z,8.91
2018-12-21T06:34:50.469Z,8.97
2018-12-21T06:35:50.463Z,8.97
2018-12-21T06:36:50.461Z,8.84
2018-12-21T06:37:50.450Z,8.84
2018-12-21T06:38:50.444Z,8.82
2018-12-21T06:39:50.437Z,8.84
2018-12-21T06:40:50.430Z,8.85
2018-12-21T06:41:50.428Z,8.91
2018-12-21T06:42:50.812Z,8.85
2018-12-21T06:43:50.412Z,8.81
2018-12-21T06:44:50.408Z,8.81
2018-12-21T06:45:50.401Z,8.85
2018-12-21T06:46:50.394Z,8.87
2018-12-21T06:47:50.389Z,8.84
2018-12-21T06:48:50.383Z,8.82
2018-12-21T06:49:50.378Z,8.84
2018-12-21T06:50:50.370Z,8.81
2018-12-21T06:51:50.364Z,8.84
2018-12-21T06:52:50.359Z,8.85
2018-12-21T06:53:50.352Z,8.81
2018-12-21T06:54:50.350Z,8.84
2018-12-21T06:55:50.340Z,8.76
2018-12-21T06:56:50.336Z,8.84
2018-12-21T06:57:50.330Z,8.84
2018-12-21T06:58:50.323Z,8.76
2018-12-21T06:59:50.316Z,8.85
2018-12-21T07:00:50.313Z,8.84
2018-12-21T07:01:50.305Z,8.78
2018-12-21T07:02:50.298Z,8.76
2018-12-21T07:03:50.290Z,8.79
2018-12-21T07:04:50.286Z,8.81
2018-12-21T07:05:50.279Z,8.64
2018-12-21T07:06:50.279Z,8.82
2018-12-21T07:07:50.267Z,8.64
2018-12-21T07:08:50.261Z,8.63
2018-12-21T07:09:50.254Z,8.71
2018-12-21T07:10:50.249Z,8.66
2018-12-21T07:11:50.243Z,8.67
2018-12-21T07:12:50.235Z,8.67
2018-12-21T07:13:50.230Z,8.71
2018-12-21T07:14:50.225Z,8.69
2018-12-21T07:15:50.218Z,8.60
2018-12-21T07:16:50.210Z,8.66
2018-12-21T07:17:50.207Z,8.60
2018-12-21T07:18:50.198Z,8.61
2018-12-21T07:19:50.193Z,8.61
2018-12-21T07:20:50.185Z,8.61
2018-12-21T07:21:50.181Z,8.55
2018-12-21T07:22:50.174Z,8.52
2018-12-21T07:23:50.168Z,8.55
2018-12-21T07:24:50.161Z,8.60
2018-12-21T07:25:50.154Z,8.64
2018-12-21T07:26:50.150Z,8.55
2018-12-21T07:27:50.143Z,8.51
2018-12-21T07:28:50.137Z,8.53
2018-12-21T07:29:50.131Z,8.46
2018-12-21T07:30:50.124Z,8.53
2018-12-21T07:31:50.117Z,8.51
2018-12-21T07:32:50.111Z,8.56
2018-12-21T07:33:50.105Z,8.52
2018-12-21T07:34:50.099Z,8.52
2018-12-21T07:35:50.092Z,8.51
2018-12-21T07:36:50.085Z,8.52
2018-12-21T07:37:50.079Z,8.51
2018-12-21T07:38:50.076Z,8.46
2018-12-21T07:39:50.068Z,8.53
2018-12-21T07:40:50.061Z,8.56
2018-12-21T07:41:50.054Z,8.51
2018-12-21T07:42:50.048Z,8.53
2018-12-21T07:43:50.042Z,8.55
2018-12-21T07:44:50.036Z,8.49
2018-12-21T07:45:50.030Z,8.51
2018-12-21T07:46:50.023Z,8.58
2018-12-21T07:47:50.017Z,8.56
2018-12-21T07:48:50.010Z,8.52
2018-12-21T07:49:50.005Z,8.53
2018-12-21T07:50:49.998Z,8.60
2018-12-21T07:51:49.993Z,8.61
2018-12-21T07:52:49.985Z,8.60
2018-12-21T07:53:49.978Z,8.60
2018-12-21T07:54:49.973Z,8.61
2018-12-21T07:55:49.965Z,8.61
2018-12-21T07:56:49.961Z,8.64
2018-12-21T07:57:49.954Z,8.66
2018-12-21T07:58:57.101Z,8.67
2018-12-21T07:59:49.942Z,8.66
2018-12-21T08:00:49.934Z,8.56
2018-12-21T08:01:49.932Z,8.66
2018-12-21T08:02:49.924Z,8.64
2018-12-21T08:03:49.915Z,8.64
2018-12-21T08:04:49.912Z,8.76
2018-12-21T08:05:49.907Z,8.70
2018-12-21T08:06:49.897Z,8.69
2018-12-21T08:07:49.891Z,8.67
2018-12-21T08:08:49.886Z,8.66
2018-12-21T08:09:49.880Z,8.66
2018-12-21T08:10:49.872Z,8.82
2018-12-21T08:11:49.869Z,8.79
2018-12-21T08:12:49.863Z,8.81
2018-12-21T08:13:49.854Z,8.84
2018-12-21T08:14:49.848Z,8.79
2018-12-21T08:15:49.841Z,8.81
2018-12-21T08:16:49.838Z,8.91
2018-12-21T08:17:49.830Z,8.85
2018-12-21T08:18:49.824Z,8.88
2018-12-21T08:19:49.816Z,9.00
2018-12-21T08:20:49.811Z,9.00
2018-12-21T08:21:49.805Z,8.94
2018-12-21T08:22:49.799Z,8.95
2018-12-21T08:23:49.791Z,8.97
2018-12-21T08:24:49.786Z,9.02
2018-12-21T08:25:49.780Z,9.10
2018-12-21T08:26:49.775Z,9.08
2018-12-21T08:27:49.768Z,9.08
2018-12-21T08:28:49.762Z,9.08
2018-12-21T08:29:49.757Z,9.04
2018-12-21T08:30:49.750Z,9.11
2018-12-21T08:31:49.745Z,9.08
2018-12-21T08:32:49.739Z,9.14
2018-12-21T08:33:49.733Z,9.21
2018-12-21T08:34:49.727Z,9.16
2018-12-21T08:35:49.724Z,9.18
2018-12-21T08:36:49.714Z,9.14
2018-12-21T08:37:49.707Z,9.22
2018-12-21T08:38:49.702Z,9.29
2018-12-21T08:39:49.697Z,9.25
2018-12-21T08:40:49.692Z,9.36
2018-12-21T08:41:49.684Z,9.31
2018-12-21T08:42:49.679Z,9.28
2018-12-21T08:43:49.672Z,9.26
2018-12-21T08:44:49.666Z,9.28
2018-12-21T08:45:49.661Z,9.31
2018-12-21T08:46:49.653Z,9.29
2018-12-21T08:47:49.649Z,9.32
2018-12-21T08:48:49.644Z,9.39
2018-12-21T08:49:49.637Z,9.39
2018-12-21T08:50:49.634Z,9.36
2018-12-21T08:51:49.627Z,9.31
2018-12-21T08:52:49.619Z,9.32
2018-12-21T08:53:52.639Z,9.46
2018-12-21T08:54:49.607Z,9.32
2018-12-21T08:55:49.602Z,9.40
2018-12-21T08:56:49.598Z,9.47
2018-12-21T08:57:49.590Z,9.47
2018-12-21T08:58:49.585Z,9.41
2018-12-21T08:59:49.579Z,9.48
2018-12-21T09:00:49.576Z,9.50
2018-12-21T09:01:49.565Z,9.59
2018-12-21T09:02:49.562Z,9.46
2018-12-21T09:03:49.553Z,9.48
2018-12-21T09:04:49.553Z,9.44
2018-12-21T09:05:49.542Z,9.55
2018-12-21T09:06:49.539Z,9.54
2018-12-21T09:07:49.532Z,9.51
2018-12-21T09:08:49.525Z,9.58
2018-12-21T09:09:49.520Z,9.58
2018-12-21T09:10:49.519Z,9.61
2018-12-21T09:11:49.509Z,9.62
2018-12-21T09:12:49.503Z,9.56
2018-12-21T09:13:49.500Z,9.61
2018-12-21T09:14:49.495Z,9.69
2018-12-21T09:15:49.485Z,9.68
2018-12-21T09:16:49.479Z,9.64
2018-12-21T09:17:49.474Z,9.65
2018-12-21T09:18:49.467Z,9.65
2018-12-21T09:19:49.462Z,9.65
2018-12-21T09:20:49.455Z,9.65
2018-12-21T09:21:49.451Z,9.64
2018-12-21T09:22:49.446Z,9.74
2018-12-21T09:23:49.439Z,9.68
2018-12-21T09:24:49.434Z,9.61
2018-12-21T09:25:49.428Z,9.68
2018-12-21T09:26:49.422Z,9.65
2018-12-21T09:27:49.416Z,9.65
2018-12-21T09:28:49.413Z,9.64
2018-12-21T09:29:49.510Z,9.65
2018-12-21T09:30:49.400Z,9.64
2018-12-21T09:31:49.394Z,9.65
2018-12-21T09:32:49.389Z,9.64
2018-12-21T09:33:49.382Z,9.66
2018-12-21T09:34:49.377Z,9.64
2018-12-21T09:35:49.370Z,9.68
2018-12-21T09:36:49.366Z,9.65
2018-12-21T09:37:49.362Z,9.66
2018-12-21T09:38:49.354Z,9.66
2018-12-21T09:39:49.348Z,9.62
2018-12-21T09:40:49.345Z,9.68
2018-12-21T09:41:49.340Z,9.72
2018-12-21T09:42:49.332Z,9.68
2018-12-21T09:43:49.384Z,9.65
2018-12-21T09:44:52.564Z,9.66
2018-12-21T09:45:49.314Z,9.65
2018-12-21T09:46:49.309Z,9.69
2018-12-21T09:47:49.302Z,9.72
2018-12-21T09:48:49.296Z,9.66
2018-12-21T09:49:49.296Z,9.65
2018-12-21T09:50:49.287Z,9.65
2018-12-21T09:51:49.280Z,9.72
2018-12-21T09:52:49.274Z,9.66
2018-12-21T09:53:49.272Z,9.72
2018-12-21T09:54:49.264Z,9.69
2018-12-21T09:55:49.257Z,9.68
2018-12-21T09:56:49.253Z,9.65
2018-12-21T09:57:49.246Z,9.72
2018-12-21T09:58:49.241Z,9.72
2018-12-21T09:59:49.237Z,9.72
2018-12-21T10:00:49.229Z,9.73
2018-12-21T10:01:49.225Z,9.74
2018-12-21T10:02:49.219Z,9.73
2018-12-21T10:03:49.214Z,9.82
2018-12-21T10:04:49.208Z,9.80
2018-12-21T10:05:49.203Z,9.76
2018-12-21T10:06:49.197Z,9.82
2018-12-21T10:07:49.190Z,9.80
2018-12-21T10:08:49.186Z,9.77
2018-12-21T10:09:49.181Z,9.79
2018-12-21T10:10:50.627Z,9.79
2018-12-21T10:11:49.168Z,9.80
2018-12-21T10:12:53.312Z,9.80
2018-12-21T10:13:49.159Z,9.79
2018-12-21T10:14:49.156Z,9.82
2018-12-21T10:15:49.147Z,9.77
2018-12-21T10:16:49.141Z,9.83
2018-12-21T10:17:49.137Z,9.84
2018-12-21T10:18:49.130Z,9.84
2018-12-21T10:19:49.126Z,9.86
2018-12-21T10:20:49.120Z,9.82
2018-12-21T10:21:49.113Z,9.86
2018-12-21T10:22:49.109Z,9.84
2018-12-21T10:23:49.104Z,9.92
2018-12-21T10:24:49.097Z,9.82
2018-12-21T10:25:49.091Z,9.87
2018-12-21T10:26:49.086Z,9.91
2018-12-21T10:27:49.081Z,9.97
2018-12-21T10:28:49.075Z,9.99
2018-12-21T10:29:49.069Z,10.09
2018-12-21T10:30:49.065Z,10.01
2018-12-21T10:31:49.059Z,10.12
2018-12-21T10:32:49.054Z,10.13
2018-12-21T10:33:49.156Z,10.10
2018-12-21T10:34:49.042Z,10.16
2018-12-21T10:35:49.037Z,10.16
2018-12-21T10:36:49.032Z,10.17
2018-12-21T10:37:49.026Z,10.07
2018-12-21T10:38:49.020Z,10.12
2018-12-21T10:39:49.015Z,10.23
2018-12-21T10:40:49.009Z,10.25
2018-12-21T10:41:49.004Z,10.16
2018-12-21T10:42:48.999Z,10.15
2018-12-21T10:43:48.994Z,10.12
2018-12-21T10:44:48.988Z,10.10
2018-12-21T10:45:48.982Z,10.16
2018-12-21T10:46:48.979Z,10.30
2018-12-21T10:47:48.971Z,10.28
2018-12-21T10:48:48.966Z,10.26
2018-12-21T10:49:48.961Z,10.28
2018-12-21T10:50:48.956Z,10.28
2018-12-21T10:51:48.950Z,10.26
2018-12-21T10:52:48.946Z,10.26
2018-12-21T10:53:48.941Z,10.31
2018-12-21T10:54:48.934Z,10.30
2018-12-21T10:55:48.931Z,10.31
2018-12-21T10:56:48.925Z,10.28
2018-12-21T10:57:48.918Z,10.35
2018-12-21T10:58:49.866Z,10.35
2018-12-21T10:59:48.906Z,10.46
2018-12-21T11:00:48.901Z,10.38
2018-12-21T11:01:48.897Z,10.42
2018-12-21T11:02:48.891Z,10.41
2018-12-21T11:03:48.885Z,10.53
2018-12-21T11:04:48.881Z,10.54
2018-12-21T11:05:48.875Z,10.57
2018-12-21T11:06:48.871Z,10.61
2018-12-21T11:07:48.865Z,10.69
2018-12-21T11:08:48.859Z,10.71
2018-12-21T11:09:48.854Z,10.71
2018-12-21T11:10:48.849Z,10.74
2018-12-21T11:11:48.844Z,10.78
2018-12-21T11:12:48.839Z,10.79
2018-12-21T11:13:48.833Z,10.82
2018-12-21T11:14:48.829Z,10.89
2018-12-21T11:15:48.822Z,10.86
2018-12-21T11:16:48.818Z,10.90
2018-12-21T11:17:48.813Z,10.89
2018-12-21T11:18:48.809Z,10.89
2018-12-21T11:19:48.801Z,10.92
2018-12-21T11:20:48.796Z,10.96
2018-12-21T11:21:48.792Z,10.97
2018-12-21T11:22:48.786Z,10.96
2018-12-21T11:23:48.781Z,10.97
2018-12-21T11:24:48.777Z,10.99
2018-12-21T11:25:48.771Z,11.10
2018-12-21T11:26:48.768Z,11.10
2018-12-21T11:27:48.762Z,11.04
2018-12-21T11:28:48.761Z,11.02
2018-12-21T11:29:49.628Z,11.00
2018-12-21T11:30:48.745Z,11.08
2018-12-21T11:31:48.740Z,11.15
2018-12-21T11:32:48.735Z,11.17
2018-12-21T11:33:48.731Z,11.12
2018-12-21T11:34:48.726Z,11.18
2018-12-21T11:35:48.720Z,11.12
2018-12-21T11:36:48.719Z,11.11
2018-12-21T11:37:48.712Z,11.17
2018-12-21T11:38:48.708Z,11.14
2018-12-21T11:39:48.700Z,11.23
2018-12-21T11:40:48.694Z,11.27
2018-12-21T11:41:48.691Z,11.22
2018-12-21T11:42:48.686Z,11.33
2018-12-21T11:43:48.681Z,11.32
2018-12-21T11:44:48.675Z,11.22
2018-12-21T11:45:48.671Z,11.37
2018-12-21T11:46:48.667Z,11.43
2018-12-21T11:47:48.670Z,11.45
2018-12-21T11:48:48.657Z,11.33
2018-12-21T11:49:48.651Z,11.41
2018-12-21T11:50:48.646Z,11.33
2018-12-21T11:51:48.663Z,11.35
2018-12-21T11:52:48.637Z,11.47
2018-12-21T11:53:48.632Z,11.45
2018-12-21T11:54:48.627Z,11.51
2018-12-21T11:55:48.623Z,11.50
2018-12-21T11:56:48.619Z,11.50
2018-12-21T11:57:48.613Z,11.51
2018-12-21T11:58:48.609Z,11.50
2018-12-21T11:59:48.602Z,11.62
2018-12-21T12:00:48.598Z,11.57
2018-12-21T12:01:48.593Z,11.59
2018-12-21T12:02:48.591Z,11.75
2018-12-21T12:03:48.584Z,11.69
2018-12-21T12:04:48.579Z,11.69
2018-12-21T12:05:48.575Z,11.66
2018-12-21T12:06:48.570Z,11.81
2018-12-21T12:07:48.568Z,11.84
2018-12-21T12:08:48.560Z,11.80
2018-12-21T12:09:48.555Z,11.86
2018-12-21T12:10:48.552Z,11.80
2018-12-21T12:11:48.546Z,11.90
2018-12-21T12:12:48.541Z,11.95
2018-12-21T12:13:48.536Z,11.95
2018-12-21T12:14:48.532Z,11.91
2018-12-21T12:15:48.526Z,11.86
2018-12-21T12:16:48.522Z,11.88
2018-12-21T12:17:48.518Z,12.00
2018-12-21T12:18:48.515Z,12.02
2018-12-21T12:19:48.510Z,11.99
2018-12-21T12:20:48.507Z,12.07
2018-12-21T12:21:48.499Z,12.13
2018-12-21T12:22:48.499Z,12.18
2018-12-21T12:23:48.490Z,12.07
2018-12-21T12:24:52.730Z,12.13
2018-12-21T12:25:48.485Z,12.13
2018-12-21T12:26:48.477Z,12.20
2018-12-21T12:27:48.474Z,12.25
2018-12-21T12:28:48.467Z,12.25
2018-12-21T12:29:48.465Z,12.29
2018-12-21T12:30:48.459Z,12.28
2018-12-21T12:31:48.455Z,12.31
2018-12-21T12:32:48.452Z,12.36
2018-12-21T12:33:48.445Z,12.28
2018-12-21T12:34:48.442Z,12.32
2018-12-21T12:35:48.437Z,12.42
2018-12-21T12:36:48.432Z,12.45
2018-12-21T12:37:48.427Z,12.54
2018-12-21T12:38:48.423Z,12.49
2018-12-21T12:39:48.418Z,12.58
2018-12-21T12:40:48.418Z,12.57
2018-12-21T12:41:48.412Z,12.61
2018-12-21T12:42:48.408Z,12.60
2018-12-21T12:43:48.401Z,12.68
2018-12-21T12:44:48.398Z,12.75
2018-12-21T12:45:48.394Z,12.64
2018-12-21T12:46:48.390Z,12.61
2018-12-21T12:47:48.384Z,12.82
2018-12-21T12:48:48.381Z,12.75
2018-12-21T12:49:48.378Z,12.82
2018-12-21T12:50:48.375Z,12.79
2018-12-21T12:51:48.367Z,12.78
2018-12-21T12:52:48.364Z,12.75
2018-12-21T12:53:48.360Z,12.91
2018-12-21T12:54:48.360Z,12.80
2018-12-21T12:55:48.350Z,12.90
2018-12-21T12:56:48.349Z,12.80
2018-12-21T12:57:48.343Z,12.82
2018-12-21T12:58:48.340Z,12.83
2018-12-21T12:59:48.335Z,12.86
2018-12-21T13:00:48.330Z,12.94
2018-12-21T13:01:48.326Z,12.87
2018-12-21T13:02:48.325Z,12.94
2018-12-21T13:03:48.317Z,12.95
2018-12-21T13:04:48.314Z,13.01
2018-12-21T13:05:48.311Z,13.01
2018-12-21T13:06:48.306Z,13.00
2018-12-21T13:07:48.302Z,13.09
2018-12-21T13:08:48.299Z,13.08
2018-12-21T13:09:48.294Z,13.09
2018-12-21T13:10:48.293Z,13.18
2018-12-21T13:11:48.286Z,13.13
2018-12-21T13:12:48.283Z,13.16